sensor_id;sensor_type;location;lat;lon;timestamp;pressure;altitude;pressure_sealevel;temperature;humidity
73429;BME280;61643;49.564;17.412;2023-05-25T00:01:18;98662.59;;;10.16;100.00
73429;BME280;61643;49.564;17.412;2023-05-25T00:03:44;98665.53;;;10.15;100.00
73429;BME280;61643;49.564;17.412;2023-05-25T00:06:11;98660.47;;;10.35;99.61
73429;BME280;61643;49.564;17.412;2023-05-25T00:08:39;98672.06;;;10.52;98.87
73429;BME280;61643;49.564;17.412;2023-05-25T00:11:05;98661.31;;;10.52;99.23
73429;BME280;61643;49.564;17.412;2023-05-25T00:13:31;98663.34;;;10.62;98.17
73429;BME280;61643;49.564;17.412;2023-05-25T00:15:58;98661.19;;;10.64;98.52
73429;BME280;61643;49.564;17.412;2023-05-25T00:18:24;98662.94;;;10.70;98.38
73429;BME280;61643;49.564;17.412;2023-05-25T00:20:51;98660.72;;;10.67;98.75
73429;BME280;61643;49.564;17.412;2023-05-25T00:23:20;98663.88;;;10.64;98.66
73429;BME280;61643;49.564;17.412;2023-05-25T00:25:46;98657.44;;;10.65;98.21
73429;BME280;61643;49.564;17.412;2023-05-25T00:28:12;98666.34;;;10.65;98.62
73429;BME280;61643;49.564;17.412;2023-05-25T00:30:38;98671.41;;;10.62;98.83
73429;BME280;61643;49.564;17.412;2023-05-25T00:33:04;98674.59;;;10.59;98.05
73429;BME280;61643;49.564;17.412;2023-05-25T00:35:30;98673.94;;;10.52;98.74
73429;BME280;61643;49.564;17.412;2023-05-25T00:37:56;98677.78;;;10.56;99.11
73429;BME280;61643;49.564;17.412;2023-05-25T00:40:22;98679.66;;;10.55;98.37
73429;BME280;61643;49.564;17.412;2023-05-25T00:42:48;98683.81;;;10.63;97.24
73429;BME280;61643;49.564;17.412;2023-05-25T00:45:14;98684.47;;;10.70;97.90
73429;BME280;61643;49.564;17.412;2023-05-25T00:47:40;98689.34;;;10.73;97.80
73429;BME280;61643;49.564;17.412;2023-05-25T00:50:08;98683.47;;;10.76;97.19
73429;BME280;61643;49.564;17.412;2023-05-25T00:52:34;98680.28;;;10.79;97.11
73429;BME280;61643;49.564;17.412;2023-05-25T00:55:02;98686.47;;;10.79;97.11
73429;BME280;61643;49.564;17.412;2023-05-25T00:57:30;98687.97;;;10.70;98.33
73429;BME280;61643;49.564;17.412;2023-05-25T00:59:59;98694.66;;;10.68;98.10
73429;BME280;61643;49.564;17.412;2023-05-25T01:02:26;98692.88;;;10.73;97.51
73429;BME280;61643;49.564;17.412;2023-05-25T01:04:55;98686.97;;;10.76;97.13
73429;BME280;61643;49.564;17.412;2023-05-25T01:07:25;98702.88;;;10.78;97.56
73429;BME280;61643;49.564;17.412;2023-05-25T01:10:00;98692.19;;;10.83;97.02
73429;BME280;61643;49.564;17.412;2023-05-25T01:12:28;98691.50;;;10.93;96.96
73429;BME280;61643;49.564;17.412;2023-05-25T01:14:55;98689.59;;;10.88;97.06
73429;BME280;61643;49.564;17.412;2023-05-25T01:17:21;98694.16;;;10.88;97.74
73429;BME280;61643;49.564;17.412;2023-05-25T01:19:47;98698.63;;;10.99;96.80
73429;BME280;61643;49.564;17.412;2023-05-25T01:25:17;98702.09;;;10.77;99.28
73429;BME280;61643;49.564;17.412;2023-05-25T01:27:54;98700.44;;;10.76;97.72
73429;BME280;61643;49.564;17.412;2023-05-25T01:30:24;98697.25;;;10.79;98.39
73429;BME280;61643;49.564;17.412;2023-05-25T01:32:52;98703.59;;;10.90;96.64
73429;BME280;61643;49.564;17.412;2023-05-25T01:35:18;98704.09;;;10.87;97.51
73429;BME280;61643;49.564;17.412;2023-05-25T01:37:46;98694.16;;;10.88;97.35
73429;BME280;61643;49.564;17.412;2023-05-25T01:40:13;98707.03;;;10.85;98.25
73429;BME280;61643;49.564;17.412;2023-05-25T01:42:40;98707.03;;;10.85;97.45
73429;BME280;61643;49.564;17.412;2023-05-25T01:45:07;98700.84;;;10.85;97.61
73429;BME280;61643;49.564;17.412;2023-05-25T01:50:35;98703.94;;;10.77;98.94
73429;BME280;61643;49.564;17.412;2023-05-25T01:53:09;98708.38;;;10.66;98.93
73429;BME280;61643;49.564;17.412;2023-05-25T01:55:58;98708.03;;;10.63;99.38
73429;BME280;61643;49.564;17.412;2023-05-25T01:58:26;98704.69;;;10.56;100.00
73429;BME280;61643;49.564;17.412;2023-05-25T02:00:54;98705.59;;;10.61;99.79
73429;BME280;61643;49.564;17.412;2023-05-25T02:03:23;98701.66;;;10.69;99.28
73429;BME280;61643;49.564;17.412;2023-05-25T02:05:50;98705.72;;;10.71;99.87
73429;BME280;61643;49.564;17.412;2023-05-25T02:08:16;98706.50;;;10.67;99.32
73429;BME280;61643;49.564;17.412;2023-05-25T02:10:42;98708.38;;;10.66;99.31
73429;BME280;61643;49.564;17.412;2023-05-25T02:13:08;98703.38;;;10.75;99.49
73429;BME280;61643;49.564;17.412;2023-05-25T02:15:34;98707.94;;;10.74;99.44
73429;BME280;61643;49.564;17.412;2023-05-25T02:18:00;98710.06;;;10.72;100.00
73429;BME280;61643;49.564;17.412;2023-05-25T02:20:26;98709.09;;;10.62;100.00
73429;BME280;61643;49.564;17.412;2023-05-25T02:22:52;98707.88;;;10.69;99.74
73429;BME280;61643;49.564;17.412;2023-05-25T02:25:18;98720.41;;;10.64;100.00
73429;BME280;61643;49.564;17.412;2023-05-25T02:27:44;98711.94;;;10.55;100.00
73429;BME280;61643;49.564;17.412;2023-05-25T02:30:11;98719.31;;;10.60;100.00
73429;BME280;61643;49.564;17.412;2023-05-25T02:32:37;98719.47;;;10.70;100.00
73429;BME280;61643;49.564;17.412;2023-05-25T02:35:03;98718.16;;;10.72;99.62
73429;BME280;61643;49.564;17.412;2023-05-25T02:37:29;98713.91;;;10.76;99.56
73429;BME280;61643;49.564;17.412;2023-05-25T02:39:55;98716.00;;;10.74;99.97
73429;BME280;61643;49.564;17.412;2023-05-25T02:42:21;98710.31;;;10.71;100.00
73429;BME280;61643;49.564;17.412;2023-05-25T02:44:47;98719.31;;;10.60;100.00
73429;BME280;61643;49.564;17.412;2023-05-25T02:47:14;98709.66;;;10.64;100.00
73429;BME280;61643;49.564;17.412;2023-05-25T02:49:41;98719.63;;;10.63;100.00
73429;BME280;61643;49.564;17.412;2023-05-25T02:52:07;98714.06;;;10.53;100.00
73429;BME280;61643;49.564;17.412;2023-05-25T02:54:32;98709.16;;;10.50;100.00
73429;BME280;61643;49.564;17.412;2023-05-25T02:56:58;98715.38;;;10.34;100.00
73429;BME280;61643;49.564;17.412;2023-05-25T02:59:24;98721.63;;;10.40;100.00
73429;BME280;61643;49.564;17.412;2023-05-25T03:01:50;98720.16;;;10.32;100.00
73429;BME280;61643;49.564;17.412;2023-05-25T03:04:16;98721.91;;;10.38;100.00
73429;BME280;61643;49.564;17.412;2023-05-25T03:06:43;98720.00;;;10.38;100.00
73429;BME280;61643;49.564;17.412;2023-05-25T03:09:10;98713.88;;;10.26;100.00
73429;BME280;61643;49.564;17.412;2023-05-25T03:11:37;98715.91;;;10.19;100.00
73429;BME280;61643;49.564;17.412;2023-05-25T03:14:03;98718.28;;;10.32;100.00
73429;BME280;61643;49.564;17.412;2023-05-25T03:16:28;98716.25;;;10.40;100.00
73429;BME280;61643;49.564;17.412;2023-05-25T03:18:54;98724.66;;;10.43;100.00
73429;BME280;61643;49.564;17.412;2023-05-25T03:21:20;98728.16;;;10.44;100.00
73429;BME280;61643;49.564;17.412;2023-05-25T03:23:49;98730.13;;;10.48;100.00
73429;BME280;61643;49.564;17.412;2023-05-25T03:26:15;98725.63;;;10.54;100.00
73429;BME280;61643;49.564;17.412;2023-05-25T03:28:42;98740.63;;;10.50;100.00
73429;BME280;61643;49.564;17.412;2023-05-25T03:31:08;98730.19;;;10.53;100.00
73429;BME280;61643;49.564;17.412;2023-05-25T03:33:34;98733.16;;;10.52;100.00
73429;BME280;61643;49.564;17.412;2023-05-25T03:36:00;98734.22;;;10.51;100.00
73429;BME280;61643;49.564;17.412;2023-05-25T03:38:32;98733.22;;;10.57;100.00
73429;BME280;61643;49.564;17.412;2023-05-25T03:40:58;98731.44;;;10.62;100.00
73429;BME280;61643;49.564;17.412;2023-05-25T03:43:24;98736.09;;;10.67;100.00
73429;BME280;61643;49.564;17.412;2023-05-25T03:45:50;98738.88;;;10.72;100.00
73429;BME280;61643;49.564;17.412;2023-05-25T03:48:16;98733.47;;;10.72;100.00
73429;BME280;61643;49.564;17.412;2023-05-25T03:50:42;98731.25;;;10.85;98.64
73429;BME280;61643;49.564;17.412;2023-05-25T03:53:08;98733.00;;;10.92;99.36
73429;BME280;61643;49.564;17.412;2023-05-25T03:55:34;98745.69;;;10.96;99.96
73429;BME280;61643;49.564;17.412;2023-05-25T03:58:00;98747.75;;;11.06;99.27
73429;BME280;61643;49.564;17.412;2023-05-25T04:00:26;98745.88;;;11.06;99.15
73429;BME280;61643;49.564;17.412;2023-05-25T04:02:52;98746.53;;;11.13;98.25
73429;BME280;61643;49.564;17.412;2023-05-25T04:05:18;98756.31;;;11.19;98.87
73429;BME280;61643;49.564;17.412;2023-05-25T04:07:44;98750.69;;;11.21;98.66
73429;BME280;61643;49.564;17.412;2023-05-25T04:10:10;98749.59;;;11.22;98.61
73429;BME280;61643;49.564;17.412;2023-05-25T04:12:36;98742.41;;;11.27;98.27
73429;BME280;61643;49.564;17.412;2023-05-25T04:15:03;98747.06;;;11.32;98.43
73429;BME280;61643;49.564;17.412;2023-05-25T04:17:30;98739.31;;;11.35;98.85
73429;BME280;61643;49.564;17.412;2023-05-25T04:19:56;98738.78;;;11.39;98.39
73429;BME280;61643;49.564;17.412;2023-05-25T04:22:22;98744.53;;;11.25;97.56
73429;BME280;61643;49.564;17.412;2023-05-25T04:24:48;98742.00;;;11.35;98.37
73429;BME280;61643;49.564;17.412;2023-05-25T04:27:13;98741.19;;;11.35;100.00
73429;BME280;61643;49.564;17.412;2023-05-25T04:29:42;98740.41;;;11.40;97.86
73429;BME280;61643;49.564;17.412;2023-05-25T04:32:09;98750.44;;;11.44;97.51
73429;BME280;61643;49.564;17.412;2023-05-25T04:34:34;98741.53;;;11.44;97.75
73429;BME280;61643;49.564;17.412;2023-05-25T04:37:01;98745.00;;;11.39;98.98
73429;BME280;61643;49.564;17.412;2023-05-25T04:39:30;98739.47;;;11.51;98.80
73429;BME280;61643;49.564;17.412;2023-05-25T04:41:57;98753.41;;;11.43;95.57
73429;BME280;61643;49.564;17.412;2023-05-25T04:44:23;98743.00;;;11.51;96.73
73429;BME280;61643;49.564;17.412;2023-05-25T04:46:50;98747.84;;;11.49;93.75
73429;BME280;61643;49.564;17.412;2023-05-25T04:49:17;98758.97;;;11.58;94.08
73429;BME280;61643;49.564;17.412;2023-05-25T04:51:43;98761.75;;;11.63;95.17
73429;BME280;61643;49.564;17.412;2023-05-25T04:54:09;98763.56;;;11.74;95.42
73429;BME280;61643;49.564;17.412;2023-05-25T04:56:35;98764.19;;;11.81;94.63
73429;BME280;61643;49.564;17.412;2023-05-25T04:59:01;98766.75;;;11.93;95.32
73429;BME280;61643;49.564;17.412;2023-05-25T05:01:29;98760.03;;;11.95;93.91
73429;BME280;61643;49.564;17.412;2023-05-25T05:03:55;98766.03;;;12.02;93.25
73429;BME280;61643;49.564;17.412;2023-05-25T05:06:21;98757.22;;;11.68;91.84
73429;BME280;61643;49.564;17.412;2023-05-25T05:08:47;98766.00;;;11.75;92.40
73429;BME280;61643;49.564;17.412;2023-05-25T05:11:13;98771.00;;;11.89;92.66
73429;BME280;61643;49.564;17.412;2023-05-25T05:13:39;98781.31;;;11.92;92.18
73429;BME280;61643;49.564;17.412;2023-05-25T05:16:05;98766.31;;;12.01;91.33
73429;BME280;61643;49.564;17.412;2023-05-25T05:18:31;98776.91;;;12.07;92.60
73429;BME280;61643;49.564;17.412;2023-05-25T05:20:57;98788.22;;;12.04;93.68
73429;BME280;61643;49.564;17.412;2023-05-25T05:23:23;98782.41;;;12.17;93.18
73429;BME280;61643;49.564;17.412;2023-05-25T05:25:49;98783.78;;;12.20;92.25
73429;BME280;61643;49.564;17.412;2023-05-25T05:28:15;98785.53;;;12.31;91.76
73429;BME280;61643;49.564;17.412;2023-05-25T05:30:41;98778.00;;;12.33;92.68
73429;BME280;61643;49.564;17.412;2023-05-25T05:33:08;98777.47;;;12.09;90.63
73429;BME280;61643;49.564;17.412;2023-05-25T05:35:34;98788.88;;;12.16;91.27
73429;BME280;61643;49.564;17.412;2023-05-25T05:38:00;98787.06;;;12.22;91.59
73429;BME280;61643;49.564;17.412;2023-05-25T05:40:26;98789.03;;;12.31;90.25
73429;BME280;61643;49.564;17.412;2023-05-25T05:42:52;98790.06;;;12.25;89.26
73429;BME280;61643;49.564;17.412;2023-05-25T05:45:18;98800.28;;;12.23;89.43
73429;BME280;61643;49.564;17.412;2023-05-25T05:47:44;98798.69;;;12.22;88.73
73429;BME280;61643;49.564;17.412;2023-05-25T05:50:11;98799.97;;;12.20;89.32
73429;BME280;61643;49.564;17.412;2023-05-25T05:52:37;98799.72;;;12.21;88.58
73429;BME280;61643;49.564;17.412;2023-05-25T05:55:03;98804.06;;;12.22;88.44
73429;BME280;61643;49.564;17.412;2023-05-25T05:57:29;98806.00;;;12.05;88.37
73429;BME280;61643;49.564;17.412;2023-05-25T05:59:55;98816.13;;;12.15;88.96
73429;BME280;61643;49.564;17.412;2023-05-25T06:02:21;98813.22;;;12.21;89.09
73429;BME280;61643;49.564;17.412;2023-05-25T06:04:47;98812.78;;;12.29;87.51
73429;BME280;61643;49.564;17.412;2023-05-25T06:07:13;98816.50;;;12.50;87.34
73429;BME280;61643;49.564;17.412;2023-05-25T06:09:38;98822.81;;;12.34;88.10
73429;BME280;61643;49.564;17.412;2023-05-25T06:12:05;98821.50;;;12.37;87.89
73429;BME280;61643;49.564;17.412;2023-05-25T06:14:31;98825.06;;;12.69;88.10
73429;BME280;61643;49.564;17.412;2023-05-25T06:16:57;98822.19;;;12.80;85.85
73429;BME280;61643;49.564;17.412;2023-05-25T06:19:23;98822.41;;;12.74;87.35
73429;BME280;61643;49.564;17.412;2023-05-25T06:21:49;98813.97;;;12.65;86.03
73429;BME280;61643;49.564;17.412;2023-05-25T06:24:15;98821.13;;;12.81;86.80
73429;BME280;61643;49.564;17.412;2023-05-25T06:26:41;98824.41;;;12.83;86.31
73429;BME280;61643;49.564;17.412;2023-05-25T06:29:07;98831.13;;;12.81;85.56
73429;BME280;61643;49.564;17.412;2023-05-25T06:31:33;98830.13;;;12.60;85.19
73429;BME280;61643;49.564;17.412;2023-05-25T06:33:59;98835.75;;;12.59;84.96
73429;BME280;61643;49.564;17.412;2023-05-25T06:36:25;98837.59;;;12.53;84.83
73429;BME280;61643;49.564;17.412;2023-05-25T06:38:51;98844.72;;;12.38;86.24
73429;BME280;61643;49.564;17.412;2023-05-25T06:41:17;98837.09;;;12.56;86.74
73429;BME280;61643;49.564;17.412;2023-05-25T06:43:44;98836.47;;;12.49;85.53
73429;BME280;61643;49.564;17.412;2023-05-25T06:46:10;98838.31;;;12.70;86.58
73429;BME280;61643;49.564;17.412;2023-05-25T06:48:38;98842.59;;;12.93;84.60
73429;BME280;61643;49.564;17.412;2023-05-25T06:51:04;98838.69;;;12.79;85.36
73429;BME280;61643;49.564;17.412;2023-05-25T06:53:30;98842.34;;;12.95;83.63
73429;BME280;61643;49.564;17.412;2023-05-25T06:55:56;98840.09;;;12.87;85.19
73429;BME280;61643;49.564;17.412;2023-05-25T06:58:22;98841.38;;;12.79;85.29
73429;BME280;61643;49.564;17.412;2023-05-25T07:00:48;98837.78;;;13.00;85.73
73429;BME280;61643;49.564;17.412;2023-05-25T07:03:14;98841.84;;;13.03;84.80
73429;BME280;61643;49.564;17.412;2023-05-25T07:05:41;98840.97;;;13.19;85.99
73429;BME280;61643;49.564;17.412;2023-05-25T07:08:07;98848.91;;;13.30;86.16
73429;BME280;61643;49.564;17.412;2023-05-25T07:10:33;98850.50;;;13.31;83.87
73429;BME280;61643;49.564;17.412;2023-05-25T07:12:59;98847.38;;;13.45;84.40
73429;BME280;61643;49.564;17.412;2023-05-25T07:15:25;98846.78;;;13.38;83.82
73429;BME280;61643;49.564;17.412;2023-05-25T07:17:51;98842.63;;;13.62;82.94
73429;BME280;61643;49.564;17.412;2023-05-25T07:20:17;98843.53;;;13.82;81.63
73429;BME280;61643;49.564;17.412;2023-05-25T07:22:46;98850.47;;;14.15;80.50
73429;BME280;61643;49.564;17.412;2023-05-25T07:25:11;98853.69;;;14.02;81.67
73429;BME280;61643;49.564;17.412;2023-05-25T07:27:37;98848.03;;;14.09;81.15
73429;BME280;61643;49.564;17.412;2023-05-25T07:30:05;98851.63;;;14.24;81.17
73429;BME280;61643;49.564;17.412;2023-05-25T07:32:31;98853.41;;;14.04;79.79
73429;BME280;61643;49.564;17.412;2023-05-25T07:34:58;98861.31;;;14.10;79.95
73429;BME280;61643;49.564;17.412;2023-05-25T07:37:24;98865.56;;;13.96;80.10
73429;BME280;61643;49.564;17.412;2023-05-25T07:39:50;98861.06;;;14.22;79.36
73429;BME280;61643;49.564;17.412;2023-05-25T07:42:16;98864.63;;;14.27;80.29
73429;BME280;61643;49.564;17.412;2023-05-25T07:44:46;98859.59;;;13.94;79.28
73429;BME280;61643;49.564;17.412;2023-05-25T07:47:12;98866.34;;;13.97;79.95
73429;BME280;61643;49.564;17.412;2023-05-25T07:49:38;98869.78;;;13.82;80.83
73429;BME280;61643;49.564;17.412;2023-05-25T07:52:04;98866.50;;;13.75;80.61
73429;BME280;61643;49.564;17.412;2023-05-25T07:54:31;98883.41;;;13.97;81.39
73429;BME280;61643;49.564;17.412;2023-05-25T07:56:57;98880.13;;;13.90;79.76
73429;BME280;61643;49.564;17.412;2023-05-25T07:59:24;98885.25;;;13.50;81.75
73429;BME280;61643;49.564;17.412;2023-05-25T08:01:50;98866.66;;;13.58;81.68
73429;BME280;61643;49.564;17.412;2023-05-25T08:04:16;98875.00;;;13.52;83.56
73429;BME280;61643;49.564;17.412;2023-05-25T08:06:43;98874.81;;;13.63;82.73
73429;BME280;61643;49.564;17.412;2023-05-25T08:09:09;98879.72;;;13.66;83.03
73429;BME280;61643;49.564;17.412;2023-05-25T08:11:35;98880.00;;;13.70;82.53
73429;BME280;61643;49.564;17.412;2023-05-25T08:14:01;98892.97;;;13.31;82.66
73429;BME280;61643;49.564;17.412;2023-05-25T08:16:27;98882.16;;;13.31;82.63
73429;BME280;61643;49.564;17.412;2023-05-25T08:18:53;98886.06;;;13.50;82.56
73429;BME280;61643;49.564;17.412;2023-05-25T08:21:19;98888.00;;;13.55;84.33
73429;BME280;61643;49.564;17.412;2023-05-25T08:23:45;98887.72;;;13.51;82.98
73429;BME280;61643;49.564;17.412;2023-05-25T08:26:11;98888.88;;;13.28;84.18
73429;BME280;61643;49.564;17.412;2023-05-25T08:28:37;98886.75;;;13.30;83.38
73429;BME280;61643;49.564;17.412;2023-05-25T08:31:03;98879.56;;;13.14;84.93
73429;BME280;61643;49.564;17.412;2023-05-25T08:33:30;98885.53;;;13.16;84.82
73429;BME280;61643;49.564;17.412;2023-05-25T08:35:56;98892.38;;;13.02;84.42
73429;BME280;61643;49.564;17.412;2023-05-25T08:38:24;98888.34;;;13.26;85.54
73429;BME280;61643;49.564;17.412;2023-05-25T08:41:03;98896.81;;;13.40;85.90
73429;BME280;61643;49.564;17.412;2023-05-25T08:43:32;98892.25;;;13.46;84.33
73429;BME280;61643;49.564;17.412;2023-05-25T08:46:07;98914.53;;;13.58;83.29
73429;BME280;61643;49.564;17.412;2023-05-25T08:48:35;98896.47;;;13.31;84.92
73429;BME280;61643;49.564;17.412;2023-05-25T08:51:08;98901.94;;;13.10;84.99
73429;BME280;61643;49.564;17.412;2023-05-25T08:53:36;98903.25;;;13.07;86.06
73429;BME280;61643;49.564;17.412;2023-05-25T08:56:10;98892.78;;;13.11;86.94
73429;BME280;61643;49.564;17.412;2023-05-25T09:01:43;98902.09;;;13.25;85.29
73429;BME280;61643;49.564;17.412;2023-05-25T09:04:11;98904.72;;;13.47;84.20
73429;BME280;61643;49.564;17.412;2023-05-25T09:06:38;98907.00;;;13.60;84.15
73429;BME280;61643;49.564;17.412;2023-05-25T09:09:04;98905.41;;;13.69;83.89
73429;BME280;61643;49.564;17.412;2023-05-25T09:11:31;98898.69;;;13.35;83.38
73429;BME280;61643;49.564;17.412;2023-05-25T09:13:57;98902.28;;;13.45;84.78
73429;BME280;61643;49.564;17.412;2023-05-25T09:16:24;98896.88;;;13.87;82.17
73429;BME280;61643;49.564;17.412;2023-05-25T09:18:50;98898.91;;;13.65;82.68
73429;BME280;61643;49.564;17.412;2023-05-25T09:21:16;98896.63;;;13.89;82.59
73429;BME280;61643;49.564;17.412;2023-05-25T09:23:42;98895.53;;;13.85;82.11
73429;BME280;61643;49.564;17.412;2023-05-25T09:26:09;98892.16;;;14.14;82.61
73429;BME280;61643;49.564;17.412;2023-05-25T09:28:43;98894.03;;;14.09;81.67
73429;BME280;61643;49.564;17.412;2023-05-25T09:31:11;98894.94;;;13.82;83.74
73429;BME280;61643;49.564;17.412;2023-05-25T09:33:38;98891.81;;;14.01;84.62
73429;BME280;61643;49.564;17.412;2023-05-25T09:36:05;98894.72;;;13.84;83.27
73429;BME280;61643;49.564;17.412;2023-05-25T09:38:32;98886.41;;;13.96;84.01
73429;BME280;61643;49.564;17.412;2023-05-25T09:40:58;98882.06;;;13.95;84.18
73429;BME280;61643;49.564;17.412;2023-05-25T09:43:25;98887.78;;;14.03;86.17
73429;BME280;61643;49.564;17.412;2023-05-25T09:45:52;98883.22;;;14.09;84.87
73429;BME280;61643;49.564;17.412;2023-05-25T09:48:18;98886.28;;;14.32;84.22
73429;BME280;61643;49.564;17.412;2023-05-25T09:50:44;98887.47;;;14.42;84.19
73429;BME280;61643;49.564;17.412;2023-05-25T09:53:10;98884.88;;;14.20;82.91
73429;BME280;61643;49.564;17.412;2023-05-25T09:55:37;98886.81;;;14.29;84.57
73429;BME280;61643;49.564;17.412;2023-05-25T09:58:03;98889.59;;;14.35;84.10
73429;BME280;61643;49.564;17.412;2023-05-25T10:00:29;98888.94;;;14.22;83.00
73429;BME280;61643;49.564;17.412;2023-05-25T10:02:56;98894.72;;;14.36;84.20
73429;BME280;61643;49.564;17.412;2023-05-25T10:05:22;98889.63;;;14.40;83.03
73429;BME280;61643;49.564;17.412;2023-05-25T10:07:50;98878.53;;;14.46;82.32
73429;BME280;61643;49.564;17.412;2023-05-25T10:10:18;98876.53;;;14.26;81.92
73429;BME280;61643;49.564;17.412;2023-05-25T10:12:44;98883.38;;;14.39;83.53
73429;BME280;61643;49.564;17.412;2023-05-25T10:15:14;98874.44;;;14.44;81.61
73429;BME280;61643;49.564;17.412;2023-05-25T10:18:00;98874.50;;;14.59;81.43
73429;BME280;61643;49.564;17.412;2023-05-25T10:20:27;98866.09;;;14.55;81.19
73429;BME280;61643;49.564;17.412;2023-05-25T10:22:59;98863.94;;;14.62;82.30
73429;BME280;61643;49.564;17.412;2023-05-25T10:25:39;98859.09;;;14.64;81.73
73429;BME280;61643;49.564;17.412;2023-05-25T10:28:28;98858.81;;;14.66;81.58
73429;BME280;61643;49.564;17.412;2023-05-25T10:30:54;98866.44;;;14.79;81.80
73429;BME280;61643;49.564;17.412;2023-05-25T10:33:21;98843.13;;;14.83;81.32
73429;BME280;61643;49.564;17.412;2023-05-25T10:35:49;98841.78;;;14.91;80.08
73429;BME280;61643;49.564;17.412;2023-05-25T10:38:16;98842.09;;;15.04;82.73
73429;BME280;61643;49.564;17.412;2023-05-25T10:40:45;98842.06;;;15.19;82.34
73429;BME280;61643;49.564;17.412;2023-05-25T10:43:18;98831.78;;;15.37;79.59
73429;BME280;61643;49.564;17.412;2023-05-25T10:45:46;98833.38;;;15.43;78.78
73429;BME280;61643;49.564;17.412;2023-05-25T10:48:13;98826.34;;;15.57;79.99
73429;BME280;61643;49.564;17.412;2023-05-25T10:50:39;98818.19;;;15.67;77.66
73429;BME280;61643;49.564;17.412;2023-05-25T10:53:12;98826.59;;;15.81;78.30
73429;BME280;61643;49.564;17.412;2023-05-25T10:56:04;98822.72;;;15.97;79.57
73429;BME280;61643;49.564;17.412;2023-05-25T10:58:32;98818.09;;;16.02;77.57
73429;BME280;61643;49.564;17.412;2023-05-25T11:01:09;98802.84;;;16.06;76.08
73429;BME280;61643;49.564;17.412;2023-05-25T11:09:25;98802.22;;;16.30;76.30
73429;BME280;61643;49.564;17.412;2023-05-25T11:14:26;98790.34;;;16.64;73.97
73429;BME280;61643;49.564;17.412;2023-05-25T11:17:09;98786.47;;;16.76;75.61
73429;BME280;61643;49.564;17.412;2023-05-25T11:19:47;98788.88;;;16.82;73.56
73429;BME280;61643;49.564;17.412;2023-05-25T11:22:30;98783.94;;;16.89;75.05
73429;BME280;61643;49.564;17.412;2023-05-25T11:24:58;98783.06;;;16.99;75.24
73429;BME280;61643;49.564;17.412;2023-05-25T11:27:30;98776.09;;;17.16;74.56
73429;BME280;61643;49.564;17.412;2023-05-25T11:29:57;98785.66;;;17.14;73.37
73429;BME280;61643;49.564;17.412;2023-05-25T11:32:25;98782.84;;;17.24;73.60
73429;BME280;61643;49.564;17.412;2023-05-25T11:34:52;98774.34;;;17.31;76.02
73429;BME280;61643;49.564;17.412;2023-05-25T11:37:20;98778.53;;;17.47;74.64
73429;BME280;61643;49.564;17.412;2023-05-25T11:39:46;98779.50;;;17.61;72.73
73429;BME280;61643;49.564;17.412;2023-05-25T11:42:13;98778.31;;;17.72;74.52
73429;BME280;61643;49.564;17.412;2023-05-25T11:44:40;98786.28;;;17.87;74.58
73429;BME280;61643;49.564;17.412;2023-05-25T11:47:08;98772.09;;;17.90;72.77
73429;BME280;61643;49.564;17.412;2023-05-25T11:49:38;98770.25;;;17.86;72.13
73429;BME280;61643;49.564;17.412;2023-05-25T11:52:06;98772.16;;;17.85;71.82
73429;BME280;61643;49.564;17.412;2023-05-25T11:54:32;98766.66;;;17.90;71.40
73429;BME280;61643;49.564;17.412;2023-05-25T11:56:58;98767.63;;;17.99;69.30
73429;BME280;61643;49.564;17.412;2023-05-25T11:59:25;98767.50;;;18.09;71.15
73429;BME280;61643;49.564;17.412;2023-05-25T12:01:58;98762.50;;;18.16;70.90
73429;BME280;61643;49.564;17.412;2023-05-25T12:04:25;98758.69;;;18.17;73.44
73429;BME280;61643;49.564;17.412;2023-05-25T12:06:51;98756.19;;;18.21;77.13
73429;BME280;61643;49.564;17.412;2023-05-25T12:09:20;98751.94;;;18.34;78.15
73429;BME280;61643;49.564;17.412;2023-05-25T12:11:49;98758.31;;;18.43;74.25
73429;BME280;61643;49.564;17.412;2023-05-25T12:14:15;98740.47;;;18.55;72.79
73429;BME280;61643;49.564;17.412;2023-05-25T12:16:42;98736.41;;;18.53;73.38
73429;BME280;61643;49.564;17.412;2023-05-25T12:19:09;98731.09;;;18.61;75.24
73429;BME280;61643;49.564;17.412;2023-05-25T12:21:37;98733.16;;;18.70;73.02
73429;BME280;61643;49.564;17.412;2023-05-25T12:24:04;98727.59;;;18.75;73.78
73429;BME280;61643;49.564;17.412;2023-05-25T12:26:31;98717.66;;;18.84;76.17
73429;BME280;61643;49.564;17.412;2023-05-25T12:29:04;98722.72;;;18.90;76.65
73429;BME280;61643;49.564;17.412;2023-05-25T12:31:35;98718.91;;;18.91;75.90
73429;BME280;61643;49.564;17.412;2023-05-25T12:34:21;98710.41;;;18.93;76.71
73429;BME280;61643;49.564;17.412;2023-05-25T12:36:53;98716.59;;;18.98;77.39
73429;BME280;61643;49.564;17.412;2023-05-25T12:41:55;98711.84;;;19.04;76.18
73429;BME280;61643;49.564;17.412;2023-05-25T12:44:41;98714.19;;;19.10;76.43
73429;BME280;61643;49.564;17.412;2023-05-25T12:47:13;98711.66;;;19.14;76.13
73429;BME280;61643;49.564;17.412;2023-05-25T12:49:43;98714.22;;;19.24;77.06
73429;BME280;61643;49.564;17.412;2023-05-25T12:52:10;98704.63;;;19.27;79.53
73429;BME280;61643;49.564;17.412;2023-05-25T12:54:38;98711.31;;;19.34;79.96
73429;BME280;61643;49.564;17.412;2023-05-25T12:57:12;98705.72;;;19.39;77.14
73429;BME280;61643;49.564;17.412;2023-05-25T12:59:39;98705.38;;;19.46;78.88
73429;BME280;61643;49.564;17.412;2023-05-25T13:02:06;98711.13;;;19.44;79.02
73429;BME280;61643;49.564;17.412;2023-05-25T13:04:34;98706.50;;;19.45;80.86
73429;BME280;61643;49.564;17.412;2023-05-25T13:07:00;98702.22;;;19.39;80.18
73429;BME280;61643;49.564;17.412;2023-05-25T13:09:26;98700.72;;;19.46;78.33